McCutchen Crossroads, South Carolina
Current Conditions -  °F | °C
As of 12:15 PM on Friday 31 Oct 2014 (Local Time) from KCDN Reporting Station
Clear Clear  
Wind Chill: 59°   Ceiling: Unl
Heat Index: 59°   Visibility: 10mi
Dew Point: 45°   Wind: 5mph
Humidity: 59%   Direction: 360°N
Pressure: 29.91"   Gusts: NA
Location:  34.2324°N, 80.2824°W
Report Text: KCDN 311615Z AUTO 36004KT 10SM CLR 15/07 A2991 RMK AO2 TSNO
Loading
Personal Weather Stations






























Interactive Weather Map
Tropical Storm Tracking
New forecast layout! Learn more

10-Day Weather Forecast

Advertisements
Track Severe Weather on mobile